sensor_id;sensor_type;location;lat;lon;timestamp;pressure;altitude;pressure_sealevel;temperature;humidity
7180;BME280;3631;42.152;24.756;2022-12-29T00:00:19;100564.94;;;6.29;100.00
7180;BME280;3631;42.152;24.756;2022-12-29T00:02:47;100571.78;;;6.21;100.00
7180;BME280;3631;42.152;24.756;2022-12-29T00:05:14;100570.91;;;6.18;100.00
7180;BME280;3631;42.152;24.756;2022-12-29T00:07:41;100569.19;;;6.19;100.00
7180;BME280;3631;42.152;24.756;2022-12-29T00:10:08;100575.19;;;6.23;100.00
7180;BME280;3631;42.152;24.756;2022-12-29T00:12:35;100566.63;;;6.25;100.00
7180;BME280;3631;42.152;24.756;2022-12-29T00:15:19;100574.41;;;6.31;100.00
7180;BME280;3631;42.152;24.756;2022-12-29T00:18:07;100579.56;;;6.31;100.00
7180;BME280;3631;42.152;24.756;2022-12-29T00:20:34;100587.31;;;6.37;100.00
7180;BME280;3631;42.152;24.756;2022-12-29T00:23:20;100584.75;;;6.43;100.00
7180;BME280;3631;42.152;24.756;2022-12-29T00:26:11;100570.06;;;6.24;100.00
7180;BME280;3631;42.152;24.756;2022-12-29T00:28:58;100586.50;;;6.47;100.00
7180;BME280;3631;42.152;24.756;2022-12-29T00:31:42;100589.16;;;6.53;100.00
7180;BME280;3631;42.152;24.756;2022-12-29T00:34:28;100598.59;;;6.53;100.00
7180;BME280;3631;42.152;24.756;2022-12-29T00:37:12;100597.75;;;6.59;100.00
7180;BME280;3631;42.152;24.756;2022-12-29T00:39:39;100596.06;;;6.70;100.00
7180;BME280;3631;42.152;24.756;2022-12-29T00:42:24;100606.44;;;6.82;100.00
7180;BME280;3631;42.152;24.756;2022-12-29T00:45:08;100604.69;;;6.78;100.00
7180;BME280;3631;42.152;24.756;2022-12-29T00:47:35;100616.78;;;6.82;100.00
7180;BME280;3631;42.152;24.756;2022-12-29T00:50:04;100610.75;;;6.80;100.00
7180;BME280;3631;42.152;24.756;2022-12-29T00:52:30;100617.66;;;6.84;100.00
7180;BME280;3631;42.152;24.756;2022-12-29T00:54:57;100616.72;;;6.65;100.00
7180;BME280;3631;42.152;24.756;2022-12-29T00:57:24;100620.19;;;6.73;100.00
7180;BME280;3631;42.152;24.756;2022-12-29T00:59:50;100602.94;;;6.66;100.00
7180;BME280;3631;42.152;24.756;2022-12-29T01:02:17;100617.59;;;6.78;100.00
7180;BME280;3631;42.152;24.756;2022-12-29T01:04:44;100611.56;;;6.71;100.00
7180;BME280;3631;42.152;24.756;2022-12-29T01:07:13;100620.22;;;6.84;100.00
7180;BME280;3631;42.152;24.756;2022-12-29T01:09:39;100613.34;;;6.90;100.00
7180;BME280;3631;42.152;24.756;2022-12-29T01:12:24;100610.75;;;6.89;100.00
7180;BME280;3631;42.152;24.756;2022-12-29T01:15:06;100609.94;;;6.96;100.00
7180;BME280;3631;42.152;24.756;2022-12-29T01:17:33;100597.91;;;7.03;100.00
7180;BME280;3631;42.152;24.756;2022-12-29T01:20:00;100604.81;;;7.11;100.00
7180;BME280;3631;42.152;24.756;2022-12-29T01:22:28;100603.13;;;7.21;100.00
7180;BME280;3631;42.152;24.756;2022-12-29T01:24:56;100605.72;;;7.21;100.00
7180;BME280;3631;42.152;24.756;2022-12-29T01:27:23;100599.69;;;7.25;100.00
7180;BME280;3631;42.152;24.756;2022-12-29T01:29:49;100581.56;;;7.11;100.00
7180;BME280;3631;42.152;24.756;2022-12-29T01:32:16;100606.59;;;7.27;100.00
7180;BME280;3631;42.152;24.756;2022-12-29T01:34:43;100595.38;;;7.22;100.00
7180;BME280;3631;42.152;24.756;2022-12-29T01:37:11;100596.25;;;7.24;100.00
7180;BME280;3631;42.152;24.756;2022-12-29T01:39:39;100593.66;;;7.24;100.00
7180;BME280;3631;42.152;24.756;2022-12-29T01:42:12;100589.38;;;7.31;100.00
7180;BME280;3631;42.152;24.756;2022-12-29T01:44:51;100594.53;;;7.28;100.00
7180;BME280;3631;42.152;24.756;2022-12-29T01:47:26;100578.19;;;7.29;100.00
7180;BME280;3631;42.152;24.756;2022-12-29T01:49:57;100584.19;;;7.26;100.00
7180;BME280;3631;42.152;24.756;2022-12-29T01:52:28;100573.88;;;7.26;100.00
7180;BME280;3631;42.152;24.756;2022-12-29T01:54:58;100575.63;;;7.32;100.00
7180;BME280;3631;42.152;24.756;2022-12-29T01:57:29;100569.56;;;7.19;100.00
7180;BME280;3631;42.152;24.756;2022-12-29T02:00:02;100569.53;;;7.22;100.00
7180;BME280;3631;42.152;24.756;2022-12-29T02:02:30;100567.84;;;7.26;100.00
7180;BME280;3631;42.152;24.756;2022-12-29T02:04:59;100555.78;;;7.28;100.00
7180;BME280;3631;42.152;24.756;2022-12-29T02:07:27;100549.75;;;7.35;100.00
7180;BME280;3631;42.152;24.756;2022-12-29T02:09:55;100550.66;;;7.33;100.00
7180;BME280;3631;42.152;24.756;2022-12-29T02:12:24;100544.63;;;7.43;100.00
7180;BME280;3631;42.152;24.756;2022-12-29T02:14:57;100542.91;;;7.45;100.00
7180;BME280;3631;42.152;24.756;2022-12-29T02:17:38;100547.19;;;7.49;100.00
7180;BME280;3631;42.152;24.756;2022-12-29T02:23:34;100525.69;;;7.56;100.00
7180;BME280;3631;42.152;24.756;2022-12-29T02:26:26;100532.53;;;7.57;100.00
7180;BME280;3631;42.152;24.756;2022-12-29T02:29:14;100528.25;;;7.51;100.00
7180;BME280;3631;42.152;24.756;2022-12-29T02:31:52;100530.84;;;7.53;100.00
7180;BME280;3631;42.152;24.756;2022-12-29T02:34:29;100523.94;;;7.56;100.00
7180;BME280;3631;42.152;24.756;2022-12-29T02:37:05;100523.06;;;7.59;100.00
7180;BME280;3631;42.152;24.756;2022-12-29T02:39:38;100526.53;;;7.61;100.00
7180;BME280;3631;42.152;24.756;2022-12-29T02:42:13;100519.66;;;7.54;100.00
7180;BME280;3631;42.152;24.756;2022-12-29T02:44:51;100516.22;;;7.55;100.00
7180;BME280;3631;42.152;24.756;2022-12-29T02:47:28;100512.78;;;7.56;100.00
7180;BME280;3631;42.152;24.756;2022-12-29T02:50:01;100511.91;;;7.45;100.00
7180;BME280;3631;42.152;24.756;2022-12-29T02:52:32;100510.16;;;7.48;100.00
7180;BME280;3631;42.152;24.756;2022-12-29T02:55:00;100507.59;;;7.44;100.00
7180;BME280;3631;42.152;24.756;2022-12-29T02:57:32;100496.41;;;7.29;100.00
7180;BME280;3631;42.152;24.756;2022-12-29T03:00:03;100506.75;;;7.29;100.00
7180;BME280;3631;42.152;24.756;2022-12-29T03:02:43;100496.41;;;7.22;100.00
7180;BME280;3631;42.152;24.756;2022-12-29T03:05:19;100508.47;;;7.21;100.00
7180;BME280;3631;42.152;24.756;2022-12-29T03:07:52;100504.16;;;7.17;100.00
7180;BME280;3631;42.152;24.756;2022-12-29T03:10:30;100513.63;;;7.18;100.00
7180;BME280;3631;42.152;24.756;2022-12-29T03:13:04;100502.44;;;7.19;100.00
7180;BME280;3631;42.152;24.756;2022-12-29T03:15:57;100512.75;;;7.07;100.00
7180;BME280;3631;42.152;24.756;2022-12-29T03:18:41;100506.69;;;7.01;100.00
7180;BME280;3631;42.152;24.756;2022-12-29T03:21:14;100510.97;;;6.82;100.00
7180;BME280;3631;42.152;24.756;2022-12-29T03:23:44;100500.66;;;6.76;100.00
7180;BME280;3631;42.152;24.756;2022-12-29T03:26:16;100504.03;;;6.53;100.00
7180;BME280;3631;42.152;24.756;2022-12-29T03:28:48;100504.88;;;6.52;100.00
7180;BME280;3631;42.152;24.756;2022-12-29T03:31:17;100502.25;;;6.46;100.00
7180;BME280;3631;42.152;24.756;2022-12-29T03:33:47;100497.97;;;6.47;100.00
7180;BME280;3631;42.152;24.756;2022-12-29T03:36:22;100503.97;;;6.38;100.00
7180;BME280;3631;42.152;24.756;2022-12-29T03:38:58;100503.88;;;6.23;100.00
7180;BME280;3631;42.152;24.756;2022-12-29T03:41:30;100509.06;;;6.25;100.00
7180;BME280;3631;42.152;24.756;2022-12-29T03:43:58;100491.81;;;6.14;100.00
7180;BME280;3631;42.152;24.756;2022-12-29T03:46:25;100499.53;;;6.13;100.00
7180;BME280;3631;42.152;24.756;2022-12-29T03:48:53;100504.69;;;6.10;100.00
7180;BME280;3631;42.152;24.756;2022-12-29T03:51:20;100501.19;;;5.96;100.00
7180;BME280;3631;42.152;24.756;2022-12-29T03:53:47;100507.19;;;5.95;100.00
7180;BME280;3631;42.152;24.756;2022-12-29T03:56:14;100501.19;;;5.94;100.00
7180;BME280;3631;42.152;24.756;2022-12-29T03:58:41;100506.31;;;5.94;100.00
7180;BME280;3631;42.152;24.756;2022-12-29T04:01:08;100496.00;;;5.93;100.00
7180;BME280;3631;42.152;24.756;2022-12-29T04:03:35;100499.44;;;5.93;100.00
7180;BME280;3631;42.152;24.756;2022-12-29T04:06:03;100505.41;;;5.86;100.00
7180;BME280;3631;42.152;24.756;2022-12-29T04:08:30;100491.53;;;5.70;100.00
7180;BME280;3631;42.152;24.756;2022-12-29T04:10:57;100509.56;;;5.70;100.00
7180;BME280;3631;42.152;24.756;2022-12-29T04:13:24;100511.25;;;5.67;100.00
7180;BME280;3631;42.152;24.756;2022-12-29T04:15:51;100512.97;;;5.62;100.00
7180;BME280;3631;42.152;24.756;2022-12-29T04:18:18;100513.78;;;5.58;100.00
7180;BME280;3631;42.152;24.756;2022-12-29T04:20:45;100501.66;;;5.46;100.00
7180;BME280;3631;42.152;24.756;2022-12-29T04:23:31;100517.13;;;5.46;100.00
7180;BME280;3631;42.152;24.756;2022-12-29T04:25:58;100516.16;;;5.30;100.00
7180;BME280;3631;42.152;24.756;2022-12-29T04:28:26;100518.69;;;5.27;100.00
7180;BME280;3631;42.152;24.756;2022-12-29T04:30:53;100521.28;;;5.29;100.00
7180;BME280;3631;42.152;24.756;2022-12-29T04:33:20;100527.25;;;5.25;100.00
7180;BME280;3631;42.152;24.756;2022-12-29T04:35:47;100530.72;;;5.30;100.00
7180;BME280;3631;42.152;24.756;2022-12-29T04:38:15;100531.56;;;5.32;100.00
7180;BME280;3631;42.152;24.756;2022-12-29T04:40:43;100537.59;;;5.32;100.00
7180;BME280;3631;42.152;24.756;2022-12-29T04:43:10;100543.56;;;5.27;100.00
7180;BME280;3631;42.152;24.756;2022-12-29T04:45:38;100542.72;;;5.28;100.00
7180;BME280;3631;42.152;24.756;2022-12-29T04:48:05;100541.78;;;5.21;100.00
7180;BME280;3631;42.152;24.756;2022-12-29T04:50:32;100540.16;;;5.28;100.00
7180;BME280;3631;42.152;24.756;2022-12-29T04:52:59;100548.78;;;5.34;100.00
7180;BME280;3631;42.152;24.756;2022-12-29T04:55:26;100528.13;;;5.31;100.00
7180;BME280;3631;42.152;24.756;2022-12-29T04:57:55;100547.97;;;5.43;100.00
7180;BME280;3631;42.152;24.756;2022-12-29T05:00:22;100553.97;;;5.39;100.00
7180;BME280;3631;42.152;24.756;2022-12-29T05:02:49;100550.56;;;5.40;100.00
7180;BME280;3631;42.152;24.756;2022-12-29T05:05:16;100550.53;;;5.38;100.00
7180;BME280;3631;42.152;24.756;2022-12-29T05:07:43;100548.78;;;5.36;100.00
7180;BME280;3631;42.152;24.756;2022-12-29T05:10:11;100541.88;;;5.30;100.00
7180;BME280;3631;42.152;24.756;2022-12-29T05:12:38;100547.88;;;5.32;100.00
7180;BME280;3631;42.152;24.756;2022-12-29T05:15:10;100567.72;;;5.42;100.00
7180;BME280;3631;42.152;24.756;2022-12-29T05:18:16;100562.63;;;5.47;100.00
7180;BME280;3631;42.152;24.756;2022-12-29T05:20:43;100551.38;;;5.37;100.00
7180;BME280;3631;42.152;24.756;2022-12-29T05:23:10;100553.00;;;5.28;100.00
7180;BME280;3631;42.152;24.756;2022-12-29T05:25:38;100545.97;;;5.11;100.00
7180;BME280;3631;42.152;24.756;2022-12-29T05:28:05;100539.09;;;5.09;100.00
7180;BME280;3631;42.152;24.756;2022-12-29T05:30:34;100528.00;;;5.15;100.00
7180;BME280;3631;42.152;24.756;2022-12-29T05:33:01;100537.47;;;5.20;100.00
7180;BME280;3631;42.152;24.756;2022-12-29T05:35:27;100547.88;;;5.28;100.00
7180;BME280;3631;42.152;24.756;2022-12-29T05:37:54;100544.53;;;5.39;100.00
7180;BME280;3631;42.152;24.756;2022-12-29T05:40:21;100539.34;;;5.35;100.00
7180;BME280;3631;42.152;24.756;2022-12-29T05:42:48;100541.97;;;5.41;100.00
7180;BME280;3631;42.152;24.756;2022-12-29T05:45:15;100533.38;;;5.37;100.00
7180;BME280;3631;42.152;24.756;2022-12-29T05:47:43;100530.72;;;5.30;100.00
7180;BME280;3631;42.152;24.756;2022-12-29T05:50:10;100529.78;;;5.22;100.00
7180;BME280;3631;42.152;24.756;2022-12-29T05:52:43;100532.34;;;5.20;100.00
7180;BME280;3631;42.152;24.756;2022-12-29T05:55:10;100528.00;;;5.15;100.00
7180;BME280;3631;42.152;24.756;2022-12-29T05:57:37;100525.34;;;5.08;100.00
7180;BME280;3631;42.152;24.756;2022-12-29T06:00:05;100516.75;;;5.03;100.00
7180;BME280;3631;42.152;24.756;2022-12-29T06:02:32;100537.47;;;5.16;100.00
7180;BME280;3631;42.152;24.756;2022-12-29T06:05:01;100532.34;;;5.22;100.00
7180;BME280;3631;42.152;24.756;2022-12-29T06:07:28;100542.72;;;5.31;100.00
7180;BME280;3631;42.152;24.756;2022-12-29T06:09:54;100537.56;;;5.31;100.00
7180;BME280;3631;42.152;24.756;2022-12-29T06:12:21;100540.22;;;5.37;100.00
7180;BME280;3631;42.152;24.756;2022-12-29T06:14:48;100541.06;;;5.36;100.00
7180;BME280;3631;42.152;24.756;2022-12-29T06:17:15;100536.00;;;5.46;100.00
7180;BME280;3631;42.152;24.756;2022-12-29T06:19:42;100540.25;;;5.40;100.00
7180;BME280;3631;42.152;24.756;2022-12-29T06:22:10;100537.72;;;5.46;100.00
7180;BME280;3631;42.152;24.756;2022-12-29T06:24:38;100538.63;;;5.50;100.00
7180;BME280;3631;42.152;24.756;2022-12-29T06:27:05;100541.28;;;5.62;100.00
7180;BME280;3631;42.152;24.756;2022-12-29T06:29:32;100547.31;;;5.65;100.00
7180;BME280;3631;42.152;24.756;2022-12-29T06:32:01;100553.22;;;5.55;100.00
7180;BME280;3631;42.152;24.756;2022-12-29T06:34:28;100548.19;;;5.64;100.00
7180;BME280;3631;42.152;24.756;2022-12-29T06:36:55;100553.34;;;5.64;100.00
7180;BME280;3631;42.152;24.756;2022-12-29T06:39:24;100557.69;;;5.73;100.00
7180;BME280;3631;42.152;24.756;2022-12-29T06:41:52;100569.72;;;5.74;100.00
7180;BME280;3631;42.152;24.756;2022-12-29T06:44:19;100569.75;;;5.81;100.00
7180;BME280;3631;42.152;24.756;2022-12-29T06:46:46;100571.59;;;5.93;100.00
7180;BME280;3631;42.152;24.756;2022-12-29T06:49:14;100565.50;;;5.83;100.00
7180;BME280;3631;42.152;24.756;2022-12-29T06:51:41;100576.78;;;5.98;100.00
7180;BME280;3631;42.152;24.756;2022-12-29T06:54:08;100581.97;;;6.04;100.00
7180;BME280;3631;42.152;24.756;2022-12-29T06:56:36;100584.63;;;6.16;100.00
7180;BME280;3631;42.152;24.756;2022-12-29T06:59:03;100586.34;;;6.17;100.00
7180;BME280;3631;42.152;24.756;2022-12-29T07:01:30;100592.41;;;6.24;100.00
7180;BME280;3631;42.152;24.756;2022-12-29T07:03:57;100592.50;;;6.40;100.00
7180;BME280;3631;42.152;24.756;2022-12-29T07:06:24;100602.03;;;6.56;100.00
7180;BME280;3631;42.152;24.756;2022-12-29T07:08:51;100591.78;;;6.66;100.00
7180;BME280;3631;42.152;24.756;2022-12-29T07:11:21;100593.47;;;6.68;100.00
7180;BME280;3631;42.152;24.756;2022-12-29T07:13:50;100593.41;;;6.48;100.00
7180;BME280;3631;42.152;24.756;2022-12-29T07:16:17;100595.06;;;6.37;100.00
7180;BME280;3631;42.152;24.756;2022-12-29T07:18:44;100590.72;;;6.27;100.00
7180;BME280;3631;42.152;24.756;2022-12-29T07:21:11;100607.00;;;6.20;100.00
7180;BME280;3631;42.152;24.756;2022-12-29T07:23:38;100603.53;;;6.16;100.00
7180;BME280;3631;42.152;24.756;2022-12-29T07:26:06;100600.06;;;6.13;100.00
7180;BME280;3631;42.152;24.756;2022-12-29T07:28:34;100598.44;;;6.27;100.00
7180;BME280;3631;42.152;24.756;2022-12-29T07:31:05;100593.25;;;6.21;100.00
7180;BME280;3631;42.152;24.756;2022-12-29T07:33:32;100599.28;;;6.20;100.00
7180;BME280;3631;42.152;24.756;2022-12-29T07:35:59;100593.25;;;6.21;100.00
7180;BME280;3631;42.152;24.756;2022-12-29T07:38:26;100597.47;;;6.08;100.00
7180;BME280;3631;42.152;24.756;2022-12-29T07:40:56;100599.09;;;5.99;100.00
7180;BME280;3631;42.152;24.756;2022-12-29T07:43:24;100590.53;;;6.01;100.00
7180;BME280;3631;42.152;24.756;2022-12-29T07:45:51;100590.53;;;6.00;100.00
7180;BME280;3631;42.152;24.756;2022-12-29T07:48:19;100593.81;;;5.82;100.00
7180;BME280;3631;42.152;24.756;2022-12-29T07:50:46;100598.00;;;5.69;100.00
7180;BME280;3631;42.152;24.756;2022-12-29T07:53:13;100592.78;;;5.60;100.00
7180;BME280;3631;42.152;24.756;2022-12-29T07:55:40;100592.69;;;5.50;100.00
7180;BME280;3631;42.152;24.756;2022-12-29T07:58:07;100592.66;;;5.48;100.00
7180;BME280;3631;42.152;24.756;2022-12-29T08:00:34;100590.06;;;5.46;100.00
7180;BME280;3631;42.152;24.756;2022-12-29T08:03:01;100594.50;;;5.60;100.00
7180;BME280;3631;42.152;24.756;2022-12-29T08:05:30;100598.03;;;5.72;100.00
7180;BME280;3631;42.152;24.756;2022-12-29T08:07:57;100606.75;;;5.87;100.00
7180;BME280;3631;42.152;24.756;2022-12-29T08:10:24;100602.47;;;5.89;100.00
7180;BME280;3631;42.152;24.756;2022-12-29T08:12:51;100599.97;;;5.95;100.00
7180;BME280;3631;42.152;24.756;2022-12-29T08:15:18;100605.88;;;5.84;100.00
7180;BME280;3631;42.152;24.756;2022-12-29T08:17:44;100613.75;;;6.03;100.00
7180;BME280;3631;42.152;24.756;2022-12-29T08:20:11;100600.06;;;6.13;100.00
7180;BME280;3631;42.152;24.756;2022-12-29T08:22:40;100596.66;;;6.17;100.00
7180;BME280;3631;42.152;24.756;2022-12-29T08:25:07;100565.59;;;5.94;100.00
7180;BME280;3631;42.152;24.756;2022-12-29T08:27:34;100600.13;;;6.17;100.00
7180;BME280;3631;42.152;24.756;2022-12-29T08:30:01;100601.88;;;6.26;100.00
7180;BME280;3631;42.152;24.756;2022-12-29T08:32:28;100594.25;;;6.49;100.00
7180;BME280;3631;42.152;24.756;2022-12-29T08:34:55;100590.91;;;6.62;100.00
7180;BME280;3631;42.152;24.756;2022-12-29T08:37:22;100592.63;;;6.66;100.00
7180;BME280;3631;42.152;24.756;2022-12-29T08:39:51;100587.50;;;6.74;100.00
7180;BME280;3631;42.152;24.756;2022-12-29T08:42:17;100575.53;;;6.88;100.00
7180;BME280;3631;42.152;24.756;2022-12-29T08:44:44;100584.91;;;6.78;100.00
7180;BME280;3631;42.152;24.756;2022-12-29T08:47:11;100584.09;;;6.88;100.00
7180;BME280;3631;42.152;24.756;2022-12-29T08:49:38;100573.81;;;7.02;100.00
7180;BME280;3631;42.152;24.756;2022-12-29T08:52:05;100576.44;;;7.17;100.00
7180;BME280;3631;42.152;24.756;2022-12-29T08:54:32;100573.00;;;7.27;100.00
7180;BME280;3631;42.152;24.756;2022-12-29T08:57:01;100576.47;;;7.39;100.00
7180;BME280;3631;42.152;24.756;2022-12-29T08:59:27;100570.41;;;7.24;100.00
7180;BME280;3631;42.152;24.756;2022-12-29T09:01:54;100562.69;;;7.31;100.00
7180;BME280;3631;42.152;24.756;2022-12-29T09:04:21;100567.88;;;7.40;100.00
7180;BME280;3631;42.152;24.756;2022-12-29T09:06:49;100553.22;;;7.48;100.00
7180;BME280;3631;42.152;24.756;2022-12-29T09:09:16;100553.25;;;7.55;100.00
7180;BME280;3631;42.152;24.756;2022-12-29T09:11:43;100545.47;;;7.58;100.00
7180;BME280;3631;42.152;24.756;2022-12-29T09:14:12;100548.06;;;7.66;100.00
7180;BME280;3631;42.152;24.756;2022-12-29T09:16:40;100540.31;;;7.72;100.00
7180;BME280;3631;42.152;24.756;2022-12-29T09:19:24;100543.75;;;7.79;100.00
7180;BME280;3631;42.152;24.756;2022-12-29T09:21:51;100539.41;;;7.91;100.00
7180;BME280;3631;42.152;24.756;2022-12-29T09:24:17;100530.81;;;7.74;100.00
7180;BME280;3631;42.152;24.756;2022-12-29T09:26:44;100530.81;;;7.74;100.00
7180;BME280;3631;42.152;24.756;2022-12-29T09:29:13;100525.63;;;7.91;100.00
7180;BME280;3631;42.152;24.756;2022-12-29T09:31:39;100515.28;;;7.92;100.00
7180;BME280;3631;42.152;24.756;2022-12-29T09:34:06;100514.38;;;8.02;100.00
7180;BME280;3631;42.152;24.756;2022-12-29T09:36:33;100515.22;;;8.20;100.00
7180;BME280;3631;42.152;24.756;2022-12-29T09:39:00;100504.84;;;8.29;100.00
7180;BME280;3631;42.152;24.756;2022-12-29T09:41:31;100506.53;;;8.42;100.00
7180;BME280;3631;42.152;24.756;2022-12-29T09:44:08;100503.06;;;8.48;100.00
7180;BME280;3631;42.152;24.756;2022-12-29T09:46:44;100503.03;;;8.55;100.00
7180;BME280;3631;42.152;24.756;2022-12-29T09:49:19;100491.78;;;8.62;100.00
7180;BME280;3631;42.152;24.756;2022-12-29T09:51:50;100490.03;;;8.64;100.00
7180;BME280;3631;42.152;24.756;2022-12-29T09:54:38;100484.81;;;8.75;100.00
7180;BME280;3631;42.152;24.756;2022-12-29T09:57:15;100465.84;;;8.70;100.00
7180;BME280;3631;42.152;24.756;2022-12-29T09:59:45;100474.44;;;8.77;100.00
7180;BME280;3631;42.152;24.756;2022-12-29T10:02:24;100464.91;;;8.82;100.00
7180;BME280;3631;42.152;24.756;2022-12-29T10:04:52;100477.78;;;8.92;100.00
7180;BME280;3631;42.152;24.756;2022-12-29T10:07:27;100456.25;;;8.90;100.00
7180;BME280;3631;42.152;24.756;2022-12-29T10:10:03;100457.13;;;8.88;100.00
7180;BME280;3631;42.152;24.756;2022-12-29T10:12:48;100458.88;;;8.83;100.00
7180;BME280;3631;42.152;24.756;2022-12-29T10:15:29;100409.81;;;8.64;100.00
7180;BME280;3631;42.152;24.756;2022-12-29T10:18:10;100451.88;;;8.92;100.00
7180;BME280;3631;42.152;24.756;2022-12-29T10:20:49;100446.72;;;8.94;100.00
7180;BME280;3631;42.152;24.756;2022-12-29T10:23:26;100444.97;;;8.93;100.00
7180;BME280;3631;42.152;24.756;2022-12-29T10:25:55;100444.91;;;9.05;100.00
7180;BME280;3631;42.152;24.756;2022-12-29T10:28:33;100440.56;;;9.08;100.00
7180;BME280;3631;42.152;24.756;2022-12-29T10:31:01;100444.94;;;9.00;100.00
7180;BME280;3631;42.152;24.756;2022-12-29T10:33:36;100442.25;;;9.13;100.00
7180;BME280;3631;42.152;24.756;2022-12-29T10:36:12;100436.97;;;9.25;100.00
7180;BME280;3631;42.152;24.756;2022-12-29T10:38:44;100430.84;;;9.33;100.00
7180;BME280;3631;42.152;24.756;2022-12-29T10:41:17;100429.03;;;9.41;100.00
7180;BME280;3631;42.152;24.756;2022-12-29T10:43:47;100417.84;;;9.38;100.00
7180;BME280;3631;42.152;24.756;2022-12-29T10:46:18;100429.03;;;9.44;100.00
7180;BME280;3631;42.152;24.756;2022-12-29T10:48:47;100428.09;;;9.50;100.00
7180;BME280;3631;42.152;24.756;2022-12-29T10:51:20;100430.63;;;9.56;100.00
7180;BME280;3631;42.152;24.756;2022-12-29T10:53:49;100413.44;;;9.48;100.00
7180;BME280;3631;42.152;24.756;2022-12-29T10:56:25;100425.47;;;9.52;100.00
7180;BME280;3631;42.152;24.756;2022-12-29T10:58:55;100423.75;;;9.54;100.00
7180;BME280;3631;42.152;24.756;2022-12-29T11:01:30;100421.16;;;9.52;100.00
7180;BME280;3631;42.152;24.756;2022-12-29T11:04:07;100413.38;;;9.52;100.00
7180;BME280;3631;42.152;24.756;2022-12-29T11:06:43;100403.97;;;9.43;100.00
7180;BME280;3631;42.152;24.756;2022-12-29T11:09:13;100390.19;;;9.38;100.00
7180;BME280;3631;42.152;24.756;2022-12-29T11:11:41;100399.75;;;9.36;100.00
7180;BME280;3631;42.152;24.756;2022-12-29T11:14:13;100404.84;;;9.42;100.00
7180;BME280;3631;42.152;24.756;2022-12-29T11:16:40;100396.97;;;9.52;100.00
7180;BME280;3631;42.152;24.756;2022-12-29T11:19:21;100385.72;;;9.56;100.00
7180;BME280;3631;42.152;24.756;2022-12-29T11:21:48;100388.22;;;9.63;100.00
7180;BME280;3631;42.152;24.756;2022-12-29T11:24:21;100377.00;;;9.61;100.00
7180;BME280;3631;42.152;24.756;2022-12-29T11:26:49;100373.53;;;9.61;100.00
7180;BME280;3631;42.152;24.756;2022-12-29T11:29:24;100376.97;;;9.66;100.00
7180;BME280;3631;42.152;24.756;2022-12-29T11:31:52;100375.97;;;9.76;100.00
7180;BME280;3631;42.152;24.756;2022-12-29T11:34:23;100382.78;;;9.83;100.00
7180;BME280;3631;42.152;24.756;2022-12-29T11:36:52;100380.13;;;9.91;100.00
7180;BME280;3631;42.152;24.756;2022-12-29T11:39:30;100379.19;;;9.93;100.00
7180;BME280;3631;42.152;24.756;2022-12-29T11:41:59;100376.56;;;9.99;100.00
7180;BME280;3631;42.152;24.756;2022-12-29T11:44:35;100366.09;;;10.05;100.00
7180;BME280;3631;42.152;24.756;2022-12-29T11:47:04;100374.81;;;10.01;100.00
7180;BME280;3631;42.152;24.756;2022-12-29T11:49:33;100371.41;;;9.96;100.00
7180;BME280;3631;42.152;24.756;2022-12-29T11:52:00;100360.91;;;10.05;100.00
7180;BME280;3631;42.152;24.756;2022-12-29T11:54:29;100359.16;;;10.07;100.00
7180;BME280;3631;42.152;24.756;2022-12-29T11:56:58;100358.25;;;10.11;100.00
7180;BME280;3631;42.152;24.756;2022-12-29T11:59:37;100358.16;;;10.16;100.00
7180;BME280;3631;42.152;24.756;2022-12-29T12:02:40;100349.59;;;10.12;100.00
7180;BME280;3631;42.152;24.756;2022-12-29T12:05:15;100346.91;;;10.18;100.00
7180;BME280;3631;42.152;24.756;2022-12-29T12:07:47;100342.56;;;10.21;100.00
7180;BME280;3631;42.152;24.756;2022-12-29T12:10:21;100339.09;;;10.22;100.00
7180;BME280;3631;42.152;24.756;2022-12-29T12:12:53;100333.06;;;10.19;100.00
7180;BME280;3631;42.152;24.756;2022-12-29T12:15:27;100347.78;;;10.19;100.00
7180;BME280;3631;42.152;24.756;2022-12-29T12:18:00;100341.69;;;10.22;100.00
7180;BME280;3631;42.152;24.756;2022-12-29T12:20:40;100338.19;;;10.26;100.00
7180;BME280;3631;42.152;24.756;2022-12-29T12:23:17;100327.88;;;10.16;100.00
7180;BME280;3631;42.152;24.756;2022-12-29T12:25:53;100340.69;;;10.30;100.00
7180;BME280;3631;42.152;24.756;2022-12-29T12:28:26;100329.53;;;10.27;100.00
7180;BME280;3631;42.152;24.756;2022-12-29T12:30:57;100321.78;;;10.24;100.00
7180;BME280;3631;42.152;24.756;2022-12-29T12:33:28;100323.44;;;10.28;100.00
7180;BME280;3631;42.152;24.756;2022-12-29T12:36:14;100321.69;;;10.30;100.00
7180;BME280;3631;42.152;24.756;2022-12-29T12:38:49;100332.91;;;10.32;100.00
7180;BME280;3631;42.152;24.756;2022-12-29T12:41:25;100326.78;;;10.37;100.00
7180;BME280;3631;42.152;24.756;2022-12-29T12:44:01;100313.66;;;10.45;100.00
7180;BME280;3631;42.152;24.756;2022-12-29T12:46:57;100321.50;;;10.42;100.00
7180;BME280;3631;42.152;24.756;2022-12-29T12:50:02;100317.97;;;10.47;100.00
7180;BME280;3631;42.152;24.756;2022-12-29T12:52:42;100318.53;;;10.66;100.00
7180;BME280;3631;42.152;24.756;2022-12-29T12:55:30;100315.13;;;10.61;100.00
7180;BME280;3631;42.152;24.756;2022-12-29T12:58:09;100320.53;;;10.49;100.00
7180;BME280;3631;42.152;24.756;2022-12-29T13:00:46;100316.25;;;10.46;100.00
7180;BME280;3631;42.152;24.756;2022-12-29T13:03:23;100319.78;;;10.41;100.00
7180;BME280;3631;42.152;24.756;2022-12-29T13:06:18;100325.78;;;10.46;100.00
7180;BME280;3631;42.152;24.756;2022-12-29T13:09:01;100321.50;;;10.40;100.00
7180;BME280;3631;42.152;24.756;2022-12-29T13:11:40;100330.09;;;10.45;100.00
7180;BME280;3631;42.152;24.756;2022-12-29T13:14:28;100328.28;;;10.50;100.00
7180;BME280;3631;42.152;24.756;2022-12-29T13:17:04;100327.19;;;10.65;100.00
7180;BME280;3631;42.152;24.756;2022-12-29T13:19:38;100322.16;;;10.56;100.00
7180;BME280;3631;42.152;24.756;2022-12-29T13:22:10;100324.00;;;10.49;100.00
7180;BME280;3631;42.152;24.756;2022-12-29T13:24:51;100316.16;;;10.51;100.00